Time;durP1;ratioP1;P1;durP2;ratioP2;P2;SDS_P1;SDS_P2;PMS_P1;PMS_P2;Temp;Humidity;BMP_temperature;BMP_pressure;BME280_temperature;BME280_humidity;BME280_pressure;Samples;Min_cycle;Max_cycle;Signal;HPM_P1;HPM_P2
2023/10/25 00:01:13;;;;;;;12.37;5.33;;;;;;;16.49;72.79;94458.09;5075879;28;20448;-82
2023/10/25 00:03:39;;;;;;;11.27;5.40;;;;;;;16.47;72.50;94449.47;5076630;28;20836;-81
2023/10/25 00:06:06;;;;;;;10.97;5.43;;;;;;;16.48;72.70;94451.13;5075610;28;20795;-81
2023/10/25 00:08:33;;;;;;;11.00;5.83;;;;;;;16.48;73.44;94465.22;5075648;28;20445;-81
2023/10/25 00:11:05;;;;;;;15.60;5.87;;;;;;;16.46;73.25;94451.31;5075948;28;20451;-81
2023/10/25 00:13:33;;;;;;;10.13;5.17;;;;;;;16.38;73.83;94446.06;5075508;28;20506;-81
2023/10/25 00:16:00;;;;;;;12.47;4.97;;;;;;;16.32;73.75;94436.19;5075336;28;20448;-81
2023/10/25 00:18:27;;;;;;;14.40;5.53;;;;;;;16.29;73.77;94425.94;5075617;28;20484;-81
2023/10/25 00:20:54;;;;;;;10.70;5.87;;;;;;;16.34;74.08;94419.13;5075484;28;20449;-81
2023/10/25 00:23:21;;;;;;;18.57;6.67;;;;;;;16.37;73.63;94399.41;5075824;28;20451;-81
2023/10/25 00:25:49;;;;;;;11.17;6.17;;;;;;;16.39;72.88;94395.56;5075665;28;20444;-81
2023/10/25 00:28:16;;;;;;;7.43;6.30;;;;;;;16.38;72.95;94409.81;5075425;28;20491;-81
2023/10/25 00:30:45;;;;;;;8.30;5.00;;;;;;;16.39;72.63;94402.69;5075426;28;20458;-81
2023/10/25 00:33:11;;;;;;;9.83;4.77;;;;;;;16.37;73.35;94402.06;5075548;28;20445;-82
2023/10/25 00:35:38;;;;;;;8.67;6.27;;;;;;;16.38;72.92;94406.34;5075816;28;20440;-81
2023/10/25 00:38:05;;;;;;;16.57;5.10;;;;;;;16.34;73.14;94413.81;5075452;28;20488;-81
2023/10/25 00:40:32;;;;;;;12.67;5.67;;;;;;;16.38;73.69;94399.22;5075402;28;20534;-80
2023/10/25 00:43:14;;;;;;;9.63;6.60;;;;;;;16.42;73.66;94389.09;5074921;28;20441;-81
2023/10/25 00:45:57;;;;;;;12.37;5.13;;;;;;;16.43;73.02;94393.41;5075141;28;20440;-81
2023/10/25 00:48:24;;;;;;;9.70;4.93;;;;;;;16.46;73.19;94398.34;5075275;28;20480;-81
2023/10/25 00:50:52;;;;;;;9.27;4.90;;;;;;;16.44;73.25;94397.69;5075261;28;20439;-81
2023/10/25 00:53:19;;;;;;;15.23;5.50;;;;;;;16.43;73.90;94396.88;5039714;28;20447;-81
2023/10/25 00:55:46;;;;;;;15.80;6.03;;;;;;;16.39;74.20;94390.28;5075016;28;20455;-81
2023/10/25 00:58:13;;;;;;;8.70;4.43;;;;;;;16.41;74.42;94400.69;5074496;28;20498;-81
2023/10/25 01:00:40;;;;;;;9.47;5.13;;;;;;;16.40;74.29;94393.75;5074586;28;20445;-81
2023/10/25 01:03:08;;;;;;;8.87;4.83;;;;;;;16.42;73.52;94405.00;5074445;28;20442;-81
2023/10/25 01:05:35;;;;;;;12.63;4.60;;;;;;;16.39;73.84;94408.81;5074598;28;20453;-81
2023/10/25 01:08:02;;;;;;;8.00;5.00;;;;;;;16.40;73.26;94402.53;5074792;28;20465;-81
2023/10/25 01:10:29;;;;;;;14.13;5.47;;;;;;;16.38;73.40;94404.53;5074553;28;20483;-81
2023/10/25 01:12:56;;;;;;;7.30;4.60;;;;;;;16.28;73.86;94380.13;5074805;28;20439;-81
2023/10/25 01:15:24;;;;;;;8.87;5.43;;;;;;;16.29;74.44;94376.47;5074215;28;20452;-81
2023/10/25 01:17:51;;;;;;;8.97;5.00;;;;;;;16.31;73.75;94371.00;5074446;28;20445;-80
2023/10/25 01:20:19;;;;;;;10.67;5.13;;;;;;;16.35;74.56;94367.00;5074324;28;20450;-81
2023/10/25 01:22:48;;;;;;;14.00;5.73;;;;;;;16.39;74.05;94378.88;5074614;28;20480;-81
2023/10/25 01:25:15;;;;;;;14.40;5.43;;;;;;;16.39;73.48;94384.16;5074199;28;20449;-81
2023/10/25 01:27:42;;;;;;;11.87;5.13;;;;;;;16.37;73.33;94375.56;5074276;28;20479;-81
2023/10/25 01:30:10;;;;;;;7.70;4.87;;;;;;;16.29;74.30;94357.13;5039211;28;20512;-81
2023/10/25 01:32:37;;;;;;;18.43;6.63;;;;;;;16.29;73.94;94373.00;5074570;28;20462;-82
2023/10/25 01:35:04;;;;;;;8.43;4.80;;;;;;;16.30;73.65;94375.47;5073967;28;20923;-82
2023/10/25 01:37:31;;;;;;;11.30;4.40;;;;;;;16.27;74.17;94375.00;5039144;28;20450;-82
2023/10/25 01:39:59;;;;;;;15.27;5.60;;;;;;;16.27;74.75;94380.28;5073807;28;20833;-81
2023/10/25 01:42:26;;;;;;;7.90;4.73;;;;;;;16.25;74.90;94369.06;5074426;28;20451;-81
2023/10/25 01:44:53;;;;;;;14.83;5.83;;;;;;;16.26;74.55;94373.34;5074053;28;20459;-82
2023/10/25 01:47:19;;;;;;;10.33;5.50;;;;;;;16.02;75.03;94377.81;5073787;28;20442;-81
2023/10/25 01:49:46;;;;;;;12.73;5.93;;;;;;;16.10;75.32;94395.47;5073647;28;20453;-81
2023/10/25 01:52:13;;;;;;;8.80;5.40;;;;;;;15.59;76.83;94396.91;5073769;28;20445;-81
2023/10/25 01:54:40;;;;;;;10.50;5.13;;;;;;;15.64;76.24;94395.41;5073671;28;20450;-80
2023/10/25 01:57:08;;;;;;;14.83;5.23;;;;;;;15.44;77.66;94392.31;5073977;28;20464;-81
2023/10/25 01:59:37;;;;;;;21.80;6.50;;;;;;;15.49;77.75;94413.78;5055390;28;20862;-81
2023/10/25 02:02:05;;;;;;;11.87;5.10;;;;;;;15.57;78.14;94398.88;5039004;28;20449;-81
2023/10/25 02:04:31;;;;;;;17.10;6.23;;;;;;;15.60;77.56;94404.66;5074354;28;20782;-81
2023/10/25 02:06:58;;;;;;;8.90;5.30;;;;;;;15.59;77.58;94397.72;5073432;28;20450;-80
2023/10/25 02:09:25;;;;;;;7.10;5.00;;;;;;;15.64;77.73;94423.69;5073606;28;20460;-81
2023/10/25 02:11:52;;;;;;;11.50;5.57;;;;;;;15.62;76.80;94407.16;5038405;28;20432;-80
2023/10/25 02:14:20;;;;;;;10.63;4.90;;;;;;;15.67;77.26;94418.03;5054505;28;20433;-81
2023/10/25 02:16:47;;;;;;;12.13;5.73;;;;;;;15.68;76.55;94419.69;5073271;28;20441;-81
2023/10/25 02:19:15;;;;;;;10.73;5.40;;;;;;;15.71;76.46;94417.53;5054511;28;20484;-80
2023/10/25 02:21:41;;;;;;;13.50;5.37;;;;;;;15.75;76.27;94399.47;5073487;28;20598;-80
2023/10/25 02:24:10;;;;;;;12.27;4.83;;;;;;;15.81;77.06;94374.97;5073357;28;20437;-80
2023/10/25 02:26:37;;;;;;;9.67;5.10;;;;;;;15.86;76.00;94393.78;5073279;28;20451;-81
2023/10/25 02:29:04;;;;;;;9.03;5.40;;;;;;;15.79;75.25;94385.72;5073489;28;20467;-81
2023/10/25 02:31:33;;;;;;;14.57;5.17;;;;;;;15.82;75.99;94415.47;5073018;28;20451;-80
2023/10/25 02:34:03;;;;;;;10.10;4.73;;;;;;;15.85;75.06;94393.97;5073260;28;20468;-81
2023/10/25 02:36:30;;;;;;;9.93;5.90;;;;;;;15.90;76.20;94400.41;5072886;28;20456;-81
2023/10/25 02:38:57;;;;;;;10.40;4.80;;;;;;;15.76;75.39;94361.44;5072749;28;20816;-80
2023/10/25 02:41:24;;;;;;;12.27;4.70;;;;;;;15.83;75.41;94366.84;5054532;28;20758;-80
2023/10/25 02:43:53;;;;;;;7.80;3.83;;;;;;;15.89;74.92;94329.09;5073237;28;20797;-80
2023/10/25 02:46:20;;;;;;;14.30;5.00;;;;;;;15.94;74.66;94332.06;5072972;28;20541;-80
2023/10/25 02:48:50;;;;;;;8.93;4.97;;;;;;;15.95;74.38;94321.31;5072848;28;20441;-80
2023/10/25 02:51:17;;;;;;;12.13;5.30;;;;;;;15.95;74.92;94318.66;5072867;28;20446;-81
2023/10/25 02:53:44;;;;;;;8.67;4.43;;;;;;;15.87;74.95;94320.53;5073074;28;20449;-81
2023/10/25 02:56:11;;;;;;;13.07;5.37;;;;;;;15.54;75.67;94311.94;5037823;28;20931;-81
2023/10/25 02:58:38;;;;;;;9.33;5.73;;;;;;;15.64;76.53;94310.78;5072924;28;20970;-80
2023/10/25 03:01:05;;;;;;;9.37;4.17;;;;;;;15.63;75.92;94303.03;5073055;28;20500;-81
2023/10/25 03:03:35;;;;;;;10.13;4.90;;;;;;;14.97;77.93;94276.06;5073245;28;20441;-83
2023/10/25 03:06:03;;;;;;;14.30;6.07;;;;;;;15.11;78.59;94277.97;5072877;28;20535;-81
2023/10/25 03:08:31;;;;;;;12.93;6.80;;;;;;;15.28;78.22;94280.53;5072789;28;20452;-81
2023/10/25 03:10:58;;;;;;;16.40;6.10;;;;;;;15.36;77.50;94262.81;5073116;28;20803;-82
2023/10/25 03:13:23;;;;;;;9.50;5.80;;;;;;;14.80;79.88;94243.63;5073443;28;20452;-83
2023/10/25 03:15:50;;;;;;;11.73;6.40;;;;;;;14.68;80.11;94252.88;5072851;28;20832;-82
2023/10/25 03:18:17;;;;;;;20.13;7.60;;;;;;;14.92;79.45;94272.28;5072711;28;20210;-81
2023/10/25 03:20:44;;;;;;;20.87;7.80;;;;;;;15.14;79.13;94277.63;5072547;28;20540;-81
2023/10/25 03:23:12;;;;;;;25.50;7.53;;;;;;;15.24;78.36;94256.25;5072694;28;20440;-82
2023/10/25 03:25:39;;;;;;;16.57;7.77;;;;;;;15.22;78.07;94262.72;5072871;28;20450;-83
2023/10/25 03:28:06;;;;;;;14.90;6.37;;;;;;;15.03;78.78;94275.34;5074742;28;20478;-82
2023/10/25 03:30:33;;;;;;;13.47;6.40;;;;;;;15.03;79.05;94258.69;5076670;28;20459;-82
2023/10/25 03:33:00;;;;;;;14.30;6.30;;;;;;;15.20;79.48;94270.81;5076817;28;20455;-82
2023/10/25 03:35:27;;;;;;;20.40;8.47;;;;;;;15.41;79.09;94251.72;5041244;28;20495;-82
2023/10/25 03:37:54;;;;;;;17.67;6.03;;;;;;;15.44;77.28;94246.06;5076481;28;20485;-81
2023/10/25 03:40:22;;;;;;;19.57;6.50;;;;;;;15.49;77.27;94233.97;5076624;28;20558;-81
2023/10/25 03:42:49;;;;;;;18.00;7.33;;;;;;;15.63;77.47;94244.84;5076354;28;20908;-82
2023/10/25 03:45:16;;;;;;;11.43;7.10;;;;;;;15.61;77.37;94226.50;5076374;28;20477;-81
2023/10/25 03:47:43;;;;;;;14.43;6.30;;;;;;;15.70;76.42;94235.19;5076161;28;20443;-83
2023/10/25 03:50:10;;;;;;;14.60;5.97;;;;;;;15.75;75.90;94246.88;5076376;28;20443;-83
2023/10/25 03:52:37;;;;;;;23.83;7.53;;;;;;;15.78;75.97;94237.75;5057321;28;20510;-84
2023/10/25 03:55:04;;;;;;;13.13;6.70;;;;;;;15.81;76.11;94255.91;5076319;28;20437;-82
2023/10/25 03:57:32;;;;;;;14.03;7.90;;;;;;;15.63;75.82;94261.53;5076008;28;20988;-82
2023/10/25 03:59:59;;;;;;;16.10;7.80;;;;;;;15.66;75.99;94282.31;5050156;28;20479;-80
2023/10/25 04:02:25;;;;;;;22.93;8.70;;;;;;;15.68;76.14;94267.09;5066918;28;20452;-81
2023/10/25 04:04:52;;;;;;;19.17;7.50;;;;;;;15.79;76.91;94273.78;5075596;28;20905;-80
2023/10/25 04:07:19;;;;;;;14.03;7.27;;;;;;;15.81;76.51;94269.16;5075910;28;20921;-76
2023/10/25 04:09:46;;;;;;;21.83;8.03;;;;;;;15.86;76.16;94271.25;5056731;28;20453;-76
2023/10/25 04:12:13;;;;;;;21.60;8.93;;;;;;;15.87;76.15;94251.72;5056487;28;20441;-79
2023/10/25 04:14:45;;;;;;;17.77;8.27;;;;;;;15.88;75.97;94259.50;5075612;28;20534;-81
2023/10/25 04:17:12;;;;;;;16.53;7.40;;;;;;;15.90;75.83;94259.31;5075762;28;20510;-79
2023/10/25 04:19:39;;;;;;;24.47;8.90;;;;;;;15.94;76.34;94247.41;5056369;28;21264;-81
2023/10/25 04:22:06;;;;;;;14.93;7.37;;;;;;;15.97;77.11;94258.44;5036206;28;20441;-80
2023/10/25 04:24:33;;;;;;;21.03;8.57;;;;;;;16.03;76.00;94246.31;5055393;28;20501;-80
2023/10/25 04:27:01;;;;;;;20.33;8.30;;;;;;;16.06;75.93;94256.53;5055100;28;20447;-80
2023/10/25 04:29:29;;;;;;;21.80;8.40;;;;;;;16.10;76.16;94268.41;5055776;28;20446;-80
2023/10/25 04:31:57;;;;;;;21.23;8.90;;;;;;;16.11;76.62;94255.00;5055107;28;20448;-80
2023/10/25 04:34:24;;;;;;;16.63;8.90;;;;;;;16.11;75.94;94268.22;5055430;28;20446;-80
2023/10/25 04:36:51;;;;;;;14.77;8.60;;;;;;;16.10;75.84;94269.22;5055397;28;20450;-79
2023/10/25 04:39:18;;;;;;;27.77;8.73;;;;;;;15.91;75.88;94264.47;5070053;28;20490;-80
2023/10/25 04:41:45;;;;;;;18.97;8.47;;;;;;;15.95;75.97;94257.81;5075262;28;20494;-80
2023/10/25 04:44:13;;;;;;;24.83;9.00;;;;;;;15.90;76.78;94241.63;5075232;28;20450;-80
2023/10/25 04:46:39;;;;;;;20.77;8.47;;;;;;;15.87;77.82;94249.91;5074472;28;20443;-80
2023/10/25 04:49:08;;;;;;;28.33;9.37;;;;;;;15.93;77.90;94241.28;5074820;28;20446;-80
2023/10/25 04:51:34;;;;;;;16.97;8.30;;;;;;;15.97;78.45;94242.56;5075003;28;20445;-80
2023/10/25 04:54:01;;;;;;;18.07;7.67;;;;;;;15.80;77.55;94233.09;5074933;28;20456;-80
2023/10/25 04:56:28;;;;;;;21.90;9.20;;;;;;;15.89;77.78;94232.03;5074903;28;20442;-79
2023/10/25 04:58:55;;;;;;;24.80;8.67;;;;;;;15.79;77.46;94212.94;5056204;28;20821;-80
2023/10/25 05:01:22;;;;;;;29.07;8.73;;;;;;;15.84;79.01;94205.28;5074135;28;20982;-79
2023/10/25 05:03:48;;;;;;;23.30;8.10;;;;;;;15.92;79.49;94197.31;5074055;28;20444;-79
2023/10/25 05:06:17;;;;;;;17.37;8.33;;;;;;;16.00;79.16;94193.75;5073803;28;20444;-80
2023/10/25 05:08:44;;;;;;;17.23;8.80;;;;;;;16.04;78.49;94210.91;5073751;28;20440;-79
2023/10/25 05:11:15;;;;;;;16.33;7.80;;;;;;;16.14;78.38;94213.28;5074526;28;20446;-81
2023/10/25 05:13:43;;;;;;;23.10;9.50;;;;;;;16.23;77.77;94217.53;5074845;28;20442;-80
2023/10/25 05:16:11;;;;;;;19.17;8.37;;;;;;;16.27;77.24;94189.69;5039223;28;20431;-80
2023/10/25 05:18:38;;;;;;;17.93;8.50;;;;;;;16.24;78.47;94195.34;5023006;28;20451;-84
2023/10/25 05:21:06;;;;;;;21.27;9.30;;;;;;;16.48;79.55;94215.41;5074643;28;20549;-80
2023/10/25 05:23:36;;;;;;;14.60;8.13;;;;;;;16.62;81.67;94218.06;5072473;28;20492;-83
2023/10/25 05:26:04;;;;;;;24.70;9.13;;;;;;;16.67;78.72;94206.94;5074141;28;20449;-80
2023/10/25 05:28:32;;;;;;;16.27;8.40;;;;;;;16.71;78.35;94214.34;5074446;28;20806;-81
2023/10/25 05:31:02;;;;;;;23.03;7.60;;;;;;;16.65;76.26;94209.75;5039459;28;20535;-80
2023/10/25 05:33:31;;;;;;;21.00;9.97;;;;;;;16.65;76.98;94219.53;5074030;28;20441;-80
2023/10/25 05:35:59;;;;;;;27.07;8.43;;;;;;;16.65;76.91;94220.34;5074314;28;20488;-80
2023/10/25 05:38:26;;;;;;;16.37;8.40;;;;;;;16.70;76.99;94233.06;5073976;28;20859;-80
2023/10/25 05:40:55;;;;;;;19.17;8.27;;;;;;;16.75;78.59;94229.88;5073469;28;20491;-80
2023/10/25 05:43:27;;;;;;;15.30;7.30;;;;;;;16.75;76.87;94229.88;5073546;28;20440;-77
2023/10/25 05:45:54;;;;;;;16.43;8.17;;;;;;;16.53;75.86;94213.06;5073017;28;20490;-77
2023/10/25 05:48:21;;;;;;;15.30;8.23;;;;;;;16.35;76.98;94237.25;5072773;28;20436;-77
2023/10/25 05:50:51;;;;;;;17.60;7.57;;;;;;;16.35;76.28;94240.72;5072150;28;20994;-77
2023/10/25 05:53:19;;;;;;;24.00;7.47;;;;;;;16.33;75.93;94210.13;5072841;28;20808;-77
2023/10/25 05:55:47;;;;;;;19.07;8.20;;;;;;;16.35;78.79;94208.13;5072935;28;20443;-77
2023/10/25 05:58:16;;;;;;;19.03;7.60;;;;;;;16.42;78.64;94224.91;5073304;28;20439;-77
2023/10/25 06:00:48;;;;;;;31.73;8.87;;;;;;;16.53;80.09;94232.44;5072353;28;20494;-77
2023/10/25 06:03:19;;;;;;;32.87;8.17;;;;;;;16.52;77.43;94203.47;5072484;28;20440;-77
2023/10/25 06:05:47;;;;;;;28.40;7.83;;;;;;;16.36;76.69;94221.16;5072687;28;20472;-76
2023/10/25 06:08:14;;;;;;;23.07;8.27;;;;;;;16.53;77.41;94239.53;5072450;28;20855;-77
2023/10/25 06:10:45;;;;;;;24.30;9.83;;;;;;;16.64;75.88;94239.91;5072985;28;20810;-77
2023/10/25 06:13:16;;;;;;;30.90;12.23;;;;;;;16.75;77.13;94235.16;5072249;28;20445;-80
2023/10/25 06:15:44;;;;;;;34.20;12.60;;;;;;;16.85;76.40;94238.38;5038617;28;20498;-79
2023/10/25 06:18:14;;;;;;;29.13;12.13;;;;;;;16.97;75.46;94207.75;5053832;28;20432;-79
2023/10/25 06:20:41;;;;;;;28.93;9.30;;;;;;;16.98;75.43;94234.06;5072744;28;20495;-78
2023/10/25 06:23:15;;;;;;;27.80;10.50;;;;;;;17.02;76.87;94239.81;5053685;28;20449;-78
2023/10/25 06:25:42;;;;;;;21.07;10.83;;;;;;;17.04;77.64;94237.78;5072367;28;20439;-78
2023/10/25 06:28:11;;;;;;;27.47;11.13;;;;;;;16.86;75.72;94242.66;5072615;28;20865;-78
2023/10/25 06:30:43;;;;;;;23.53;10.00;;;;;;;16.81;75.72;94215.91;5037871;28;20441;-79
2023/10/25 06:33:10;;;;;;;16.93;7.70;;;;;;;17.45;85.63;94239.91;5036607;28;20464;-76
2023/10/25 06:35:36;;;;;;;22.57;11.07;;;;;;;18.03;77.49;94246.00;5072355;28;20448;-75
2023/10/25 06:38:07;;;;;;;33.50;12.93;;;;;;;18.34;75.94;94232.38;5036906;28;20794;-75
2023/10/25 06:40:34;;;;;;;23.87;13.70;;;;;;;18.41;71.63;94252.63;5021179;28;20476;-80
2023/10/25 06:43:01;;;;;;;23.53;12.83;;;;;;;18.43;73.51;94233.84;5071831;28;20437;-79
2023/10/25 06:45:29;;;;;;;37.63;13.97;;;;;;;18.36;70.81;94214.41;5036634;28;20447;-79
2023/10/25 06:47:58;;;;;;;33.57;14.20;;;;;;;18.34;73.30;94243.00;5072223;28;20442;-78
2023/10/25 06:50:26;;;;;;;30.50;14.57;;;;;;;18.27;72.13;94253.56;5036975;28;20453;-78
2023/10/25 06:52:53;;;;;;;22.60;12.43;;;;;;;18.40;82.23;94258.16;5036830;28;20438;-78
2023/10/25 06:55:21;;;;;;;38.13;13.40;;;;;;;18.33;74.00;94239.50;5071757;28;20498;-78
2023/10/25 06:57:48;;;;;;;33.70;12.90;;;;;;;18.17;72.59;94227.31;5036916;28;20849;-78
2023/10/25 07:00:19;;;;;;;40.17;12.77;;;;;;;17.92;74.36;94245.50;5071761;28;20482;-79
2023/10/25 07:02:51;;;;;;;32.83;12.03;;;;;;;17.95;74.75;94231.03;5039754;28;20449;-79
2023/10/25 07:05:21;;;;;;;21.33;11.30;;;;;;;18.04;77.59;94253.78;5075758;28;20445;-78
2023/10/25 07:07:50;;;;;;;21.00;8.43;;;;;;;17.91;71.78;94240.38;5075822;28;20443;-79
2023/10/25 07:10:18;;;;;;;31.87;11.00;;;;;;;18.01;71.77;94258.66;5040547;28;20456;-78
2023/10/25 07:12:44;;;;;;;17.43;9.80;;;;;;;17.95;72.07;94255.75;5075342;28;20951;-78
2023/10/25 07:15:14;;;;;;;29.57;10.97;;;;;;;17.98;76.68;94251.91;5075538;28;20440;-79
2023/10/25 07:17:41;;;;;;;27.53;12.30;;;;;;;18.06;80.39;94269.53;5041111;28;20448;-79
2023/10/25 07:20:12;;;;;;;32.20;13.77;;;;;;;18.16;78.75;94262.03;5075442;28;20567;-79
2023/10/25 07:22:41;;;;;;;30.20;12.10;;;;;;;18.08;72.19;94259.53;5040469;28;20475;-79
2023/10/25 07:25:09;;;;;;;27.17;12.03;;;;;;;17.81;74.48;94269.91;5075546;28;20493;-79
2023/10/25 07:27:37;;;;;;;28.20;12.20;;;;;;;17.96;74.96;94267.19;5075414;28;20476;-79
2023/10/25 07:30:07;;;;;;;28.30;10.60;;;;;;;18.06;77.98;94261.56;5075685;28;20476;-79
2023/10/25 07:32:35;;;;;;;31.70;11.57;;;;;;;18.11;75.05;94261.81;5040856;28;20449;-79
2023/10/25 07:35:03;;;;;;;21.83;10.23;;;;;;;18.15;74.78;94276.34;5075604;28;20440;-79
2023/10/25 07:37:30;;;;;;;22.40;10.13;;;;;;;18.20;75.44;94289.84;5075299;28;20521;-78
2023/10/25 07:39:58;;;;;;;31.60;13.37;;;;;;;18.28;74.81;94289.75;5056449;28;20932;-79
2023/10/25 07:42:25;;;;;;;26.27;13.27;;;;;;;18.37;73.75;94277.94;5075205;28;20455;-79
2023/10/25 07:44:52;;;;;;;29.27;10.90;;;;;;;18.39;74.69;94275.91;5056193;28;20924;-79
2023/10/25 07:47:20;;;;;;;24.97;11.80;;;;;;;18.34;72.32;94288.97;5075225;28;20452;-79
2023/10/25 07:49:47;;;;;;;32.77;11.80;;;;;;;18.34;73.56;94288.97;5040683;28;20487;-79
2023/10/25 07:52:16;;;;;;;30.03;11.63;;;;;;;18.30;73.07;94281.56;5074772;28;20449;-79
2023/10/25 07:54:43;;;;;;;20.93;8.33;;;;;;;18.02;75.16;94290.31;5075036;28;20467;-79
2023/10/25 07:57:11;;;;;;;19.93;9.30;;;;;;;18.22;75.75;94314.41;5074835;28;20934;-79
2023/10/25 07:59:38;;;;;;;36.67;10.60;;;;;;;18.28;73.96;94303.03;5075046;28;20442;-79
2023/10/25 08:02:05;;;;;;;23.33;9.73;;;;;;;18.07;72.15;94309.16;5074751;28;20579;-79
2023/10/25 08:04:32;;;;;;;22.47;8.10;;;;;;;18.09;70.83;94285.06;5039460;28;20451;-79
2023/10/25 08:06:59;;;;;;;21.87;7.57;;;;;;;18.21;72.12;94307.44;5039356;28;20440;-79
2023/10/25 08:09:26;;;;;;;33.63;8.40;;;;;;;18.30;71.72;94311.63;5074798;28;20455;-79
2023/10/25 08:11:53;;;;;;;18.87;7.57;;;;;;;18.44;72.61;94326.63;5055542;28;20800;-78
2023/10/25 08:14:21;;;;;;;24.27;8.23;;;;;;;18.44;68.63;94297.41;5073633;28;20794;-78
2023/10/25 08:16:48;;;;;;;25.70;7.13;;;;;;;18.46;68.42;94306.00;5074555;28;20487;-79
2023/10/25 08:19:16;;;;;;;22.60;8.17;;;;;;;18.65;69.40;94299.25;5074508;28;20451;-78
2023/10/25 08:21:43;;;;;;;17.17;6.30;;;;;;;18.80;69.32;94320.41;5074420;28;20833;-79
2023/10/25 08:24:10;;;;;;;22.50;7.73;;;;;;;18.87;67.89;94314.13;5074178;28;20835;-79
2023/10/25 08:26:39;;;;;;;20.53;7.70;;;;;;;18.92;67.64;94318.03;5074480;28;20439;-78
2023/10/25 08:29:06;;;;;;;21.00;7.67;;;;;;;18.95;66.89;94321.13;5055164;28;21020;-79
2023/10/25 08:31:35;;;;;;;24.00;6.80;;;;;;;18.98;66.73;94312.75;5074010;28;20952;-79
2023/10/25 08:34:02;;;;;;;26.17;7.60;;;;;;;18.81;65.65;94308.78;5074237;28;20541;-79
2023/10/25 08:36:30;;;;;;;17.73;7.40;;;;;;;18.91;65.95;94316.38;5074113;28;20447;-79
2023/10/25 08:38:57;;;;;;;16.50;6.33;;;;;;;19.13;67.17;94309.97;5073981;28;20991;-79
2023/10/25 08:41:26;;;;;;;16.70;7.33;;;;;;;19.24;65.20;94303.28;5073753;28;21012;-79
2023/10/25 08:43:53;;;;;;;28.20;7.90;;;;;;;19.41;67.08;94332.03;5073832;28;20434;-79
2023/10/25 08:46:22;;;;;;;25.00;8.07;;;;;;;19.52;65.58;94322.66;5038692;28;20209;-78
2023/10/25 08:48:52;;;;;;;21.23;6.17;;;;;;;19.56;62.34;94318.59;5074416;28;20502;-78
2023/10/25 08:51:19;;;;;;;24.70;6.83;;;;;;;19.60;63.32;94319.84;5073772;28;20543;-79
2023/10/25 08:53:47;;;;;;;31.40;8.33;;;;;;;19.65;61.42;94320.06;5073819;28;20445;-78
2023/10/25 08:56:14;;;;;;;14.17;6.47;;;;;;;19.77;63.15;94321.13;5073868;28;20452;-79
2023/10/25 08:58:41;;;;;;;19.13;7.03;;;;;;;19.83;60.72;94311.50;5074206;28;20444;-78
2023/10/25 09:01:08;;;;;;;24.63;6.40;;;;;;;19.93;62.63;94301.28;5073951;28;21208;-78
2023/10/25 09:03:39;;;;;;;11.30;5.57;;;;;;;19.90;59.70;94303.53;5073850;28;20441;-79
2023/10/25 09:06:09;;;;;;;24.47;7.10;;;;;;;20.06;61.33;94297.84;5073442;28;20472;-79
2023/10/25 09:08:37;;;;;;;13.73;5.90;;;;;;;20.25;62.98;94315.72;5073941;28;20447;-78
2023/10/25 09:11:07;;;;;;;32.97;8.10;;;;;;;20.42;60.67;94310.81;5073830;28;20899;-78
2023/10/25 09:13:35;;;;;;;22.97;6.17;;;;;;;20.52;59.09;94307.75;5073687;28;20939;-78
2023/10/25 09:16:06;;;;;;;24.97;7.23;;;;;;;20.63;58.98;94307.13;5073370;28;20495;-78
2023/10/25 09:18:34;;;;;;;39.50;7.30;;;;;;;20.62;57.89;94309.00;5073344;28;20449;-78
2023/10/25 09:21:01;;;;;;;15.90;5.67;;;;;;;20.64;57.50;94306.13;5038137;28;20992;-78
2023/10/25 09:23:30;;;;;;;15.13;6.73;;;;;;;20.74;57.34;94311.84;5073698;28;20561;-79
2023/10/25 09:25:59;;;;;;;18.73;6.70;;;;;;;20.85;58.02;94311.22;5073186;28;20443;-78
2023/10/25 09:28:28;;;;;;;19.83;6.50;;;;;;;20.91;56.53;94312.25;5073067;28;20522;-79
2023/10/25 09:30:56;;;;;;;29.20;7.17;;;;;;;21.00;57.18;94298.47;5054298;28;20430;-78
2023/10/25 09:33:23;;;;;;;25.87;7.70;;;;;;;21.02;57.36;94291.06;5073161;28;20479;-78
2023/10/25 09:35:52;;;;;;;27.33;6.30;;;;;;;21.14;56.98;94290.44;5073637;28;20863;-79
2023/10/25 09:38:19;;;;;;;31.50;8.30;;;;;;;21.21;59.37;94291.25;5054181;28;20430;-78
2023/10/25 09:40:47;;;;;;;18.70;6.40;;;;;;;21.19;55.43;94296.78;5072824;28;20458;-78
2023/10/25 09:43:17;;;;;;;24.00;7.80;;;;;;;21.13;54.71;94280.81;5073058;28;20434;-79
2023/10/25 09:45:51;;;;;;;26.63;6.97;;;;;;;21.08;55.27;94297.41;5072691;28;20452;-78
2023/10/25 09:48:18;;;;;;;20.27;6.50;;;;;;;21.21;57.09;94289.41;5073091;28;20476;-79
2023/10/25 09:51:01;;;;;;;27.33;7.10;;;;;;;21.16;56.47;94269.72;5072936;28;20863;-78
2023/10/25 09:53:28;;;;;;;28.47;7.57;;;;;;;21.19;57.37;94277.28;5072906;28;20444;-78
2023/10/25 09:56:03;;;;;;;22.80;7.47;;;;;;;21.32;56.29;94255.91;5072832;28;20844;-78
2023/10/25 09:58:33;;;;;;;24.00;7.70;;;;;;;21.42;56.86;94256.31;5072816;28;20935;-78
2023/10/25 10:01:03;;;;;;;24.50;7.17;;;;;;;21.58;55.26;94260.31;5072769;28;20481;-78
2023/10/25 10:03:38;;;;;;;26.60;7.13;;;;;;;21.86;56.54;94267.97;5072502;28;20455;-78
2023/10/25 10:06:14;;;;;;;24.10;6.37;;;;;;;22.02;52.82;94251.47;5072663;28;20441;-78
2023/10/25 10:08:49;;;;;;;33.00;9.30;;;;;;;22.04;53.21;94227.22;5072529;28;20442;-78
2023/10/25 10:11:23;;;;;;;27.13;7.10;;;;;;;22.17;54.34;94229.78;5072452;28;20446;-78
2023/10/25 10:14:40;;;;;;;26.83;6.97;;;;;;;22.18;53.44;94234.91;5072450;28;21003;-78
2023/10/25 10:17:09;;;;;;;20.43;6.73;;;;;;;22.09;52.66;94220.19;4990498;28;20477;-79
2023/10/25 10:19:39;;;;;;;32.17;8.60;;;;;;;22.15;52.66;94234.53;4990971;28;20447;-79
2023/10/25 10:22:07;;;;;;;21.67;7.30;;;;;;;22.19;53.24;94228.53;4990457;28;21056;-79
2023/10/25 10:24:45;;;;;;;29.30;8.03;;;;;;;22.24;52.52;94223.34;4990855;28;20462;-79
2023/10/25 10:27:15;;;;;;;33.47;6.93;;;;;;;22.15;52.43;94216.63;4990247;28;21003;-79
2023/10/25 10:29:45;;;;;;;34.53;7.47;;;;;;;22.19;54.80;94225.03;4990986;28;20442;-78
2023/10/25 10:32:13;;;;;;;22.70;7.63;;;;;;;22.25;53.62;94218.81;4990738;28;20535;-79
2023/10/25 10:34:43;;;;;;;37.27;8.80;;;;;;;22.25;52.59;94224.16;4990685;28;20445;-78
2023/10/25 10:37:12;;;;;;;25.47;7.40;;;;;;;22.20;51.78;94215.97;4942303;28;20468;-79
2023/10/25 10:39:59;;;;;;;25.00;8.37;;;;;;;22.20;53.02;94198.09;4990803;28;20899;-79
2023/10/25 10:42:33;;;;;;;36.60;8.10;;;;;;;22.18;53.97;94200.16;4990406;28;20492;-79
2023/10/25 10:45:01;;;;;;;25.70;7.77;;;;;;;22.29;53.93;94195.97;4990496;28;20479;-78
2023/10/25 10:47:34;;;;;;;25.60;8.97;;;;;;;22.34;53.28;94195.31;4958328;28;20442;-79
2023/10/25 10:50:09;;;;;;;26.60;7.17;;;;;;;22.34;53.48;94184.63;4990423;28;20488;-79
2023/10/25 10:52:36;;;;;;;42.07;9.27;;;;;;;22.18;53.52;94194.00;4993293;28;20456;-78
2023/10/25 10:55:02;;;;;;;33.47;7.77;;;;;;;22.20;52.83;94189.25;5072497;28;20499;-79
2023/10/25 10:57:31;;;;;;;33.27;9.10;;;;;;;22.24;53.17;94185.09;5072354;28;20920;-79
2023/10/25 10:59:58;;;;;;;28.17;8.43;;;;;;;22.30;54.95;94170.88;5071921;28;20447;-79
2023/10/25 11:02:28;;;;;;;28.70;7.80;;;;;;;22.38;56.54;94178.63;5071656;28;20568;-79
2023/10/25 11:04:55;;;;;;;29.27;7.20;;;;;;;22.38;52.13;94169.78;5072116;28;20496;-78
2023/10/25 11:07:22;;;;;;;35.03;7.83;;;;;;;22.37;51.55;94165.47;5072069;28;20501;-78
2023/10/25 11:09:48;;;;;;;25.50;5.53;;;;;;;22.50;50.51;94152.78;5071698;28;20448;-78
2023/10/25 11:12:15;;;;;;;46.50;9.50;;;;;;;22.67;49.36;94162.91;5071736;28;20455;-79
2023/10/25 11:14:45;;;;;;;44.60;8.07;;;;;;;22.76;49.07;94150.88;5071985;28;20449;-79
2023/10/25 11:17:12;;;;;;;44.97;8.50;;;;;;;22.90;49.03;94156.94;5071788;28;20440;-79
2023/10/25 11:19:40;;;;;;;46.77;9.20;;;;;;;23.01;48.80;94158.84;5071892;28;20446;-78
2023/10/25 11:22:07;;;;;;;39.07;7.33;;;;;;;23.05;48.93;94160.03;5071653;28;20517;-79
2023/10/25 11:24:35;;;;;;;42.80;9.20;;;;;;;23.11;49.17;94153.78;5052891;28;20439;-79
2023/10/25 11:27:02;;;;;;;43.40;8.90;;;;;;;23.13;48.75;94157.88;5071334;28;20492;-78
2023/10/25 11:29:31;;;;;;;38.57;8.97;;;;;;;23.20;48.04;94141.72;5071634;28;20463;-79